KSVH/SVH METAR and TAF weather

Enter ICAO airport designator
Station Type Date Time Source
KSVH METAR 2021/01/16 03:15 UTC NOAA

KSVH 160315Z AUTO 03005KT 4SM BR OVC003 02/02 A2969 RMK AO2 T00220020


Station Type Date Time Source
KSVH Decoded METAR 2021/01/16 03:15 UTC NOAA

Statesville, Statesville Municipal Airport, NC, United States (KSVH) 35-45-55N 080-57-24W
Jan 15, 2021 - 10:15 PM EST / 2021.01.16 0315 UTC
Wind: from the NNE (030 degrees) at 6 MPH (5 KT):0
Visibility: 4 mile(s):0
Sky conditions: overcast
Weather: mist
Temperature: 36.0 F (2.2 C)
Dew Point: 35.6 F (2.0 C)
Relative Humidity: 98%
Pressure (altimeter): 29.69 in. Hg (1005 hPa)
ob: KSVH 160315Z AUTO 03005KT 4SM BR OVC003 02/02 A2969 RMK AO2 T00220020
cycle: 3

Station Type Date Time Source
KSVH TAF UTC NOAA

Error!

Example: see airport list